Time;durP1;ratioP1;P1;durP2;ratioP2;P2;SDS_P1;SDS_P2;PMS_P1;PMS_P2;Temp;Humidity;BMP_temperature;BMP_pressure;BME280_temperature;BME280_humidity;BME280_pressure;Samples;Min_cycle;Max_cycle;Signal;HPM_P1;HPM_P2
2022/05/07 00:01:27;;;;;;;8.48;7.75;;;;;;;;;;5010455;28;20057;-69
2022/05/07 00:03:56;;;;;;;7.60;6.90;;;;;;;;;;5010910;28;20112;-68
2022/05/07 00:06:24;;;;;;;7.93;7.20;;;;;;;;;;5010197;28;20050;-69
2022/05/07 00:08:51;;;;;;;7.20;6.50;;;;;;;;;;5010434;28;20054;-69
2022/05/07 00:11:20;;;;;;;8.18;6.47;;;;;;;;;;5010406;28;20057;-68
2022/05/07 00:13:49;;;;;;;8.60;6.68;;;;;;;;;;5010243;28;20061;-68
2022/05/07 00:19:04;;;;;;;6.15;4.97;;;;;;;;;;5010713;28;20050;-68
2022/05/07 00:21:33;;;;;;;9.07;5.72;;;;;;;;;;5010895;28;20046;-68
2022/05/07 00:24:02;;;;;;;6.15;5.55;;;;;;;;;;5010065;28;20085;-69
2022/05/07 00:26:31;;;;;;;5.65;5.15;;;;;;;;;;5010505;28;20046;-68
2022/05/07 00:28:59;;;;;;;5.53;5.03;;;;;;;;;;5077835;28;20129;-68
2022/05/07 00:31:28;;;;;;;4.65;4.25;;;;;;;;;;5010652;28;20096;-68
2022/05/07 00:33:56;;;;;;;4.90;4.20;;;;;;;;;;5010137;28;20050;-68
2022/05/07 00:36:30;;;;;;;4.90;4.13;;;;;;;;;;5010182;28;20373;-69
2022/05/07 00:39:00;;;;;;;5.22;4.72;;;;;;;;;;5010386;28;20050;-70
2022/05/07 00:41:30;;;;;;;5.18;4.78;;;;;;;;;;5009596;28;20553;-69
2022/05/07 00:43:58;;;;;;;5.18;4.70;;;;;;;;;;5010749;28;20088;-69
2022/05/07 00:46:26;;;;;;;5.80;4.97;;;;;;;;;;5091046;28;20048;-69
2022/05/07 00:48:56;;;;;;;5.28;4.72;;;;;;;;;;5093311;28;20051;-69
2022/05/07 00:51:33;;;;;;;6.00;5.43;;;;;;;;;;5091214;28;20498;-70
2022/05/07 00:54:04;;;;;;;7.55;5.10;;;;;;;;;;5076432;28;20086;-70
2022/05/07 00:56:34;;;;;;;6.90;4.68;;;;;;;;;;5091995;28;20139;-69
2022/05/07 00:59:03;;;;;;;5.45;4.75;;;;;;;;;;5094412;28;20044;-70
2022/05/07 01:01:32;;;;;;;4.93;4.53;;;;;;;;;;5095218;28;20067;-69
2022/05/07 01:04:01;;;;;;;6.65;4.90;;;;;;;;;;5095008;28;20054;-69
2022/05/07 01:06:32;;;;;;;5.70;4.57;;;;;;;;;;5095362;28;20047;-70
2022/05/07 01:09:03;;;;;;;6.40;5.80;;;;;;;;;;5094958;28;20089;-69
2022/05/07 01:11:33;;;;;;;5.40;4.90;;;;;;;;;;5096489;28;20040;-69
2022/05/07 01:14:02;;;;;;;5.30;4.80;;;;;;;;;;5095367;28;20101;-69
2022/05/07 01:16:32;;;;;;;5.28;4.68;;;;;;;;;;5095236;28;20384;-69
2022/05/07 01:19:00;;;;;;;5.30;4.80;;;;;;;;;;5094848;28;20133;-70
2022/05/07 01:21:30;;;;;;;5.00;4.50;;;;;;;;;;5095227;28;20071;-70
2022/05/07 01:23:59;;;;;;;5.40;4.90;;;;;;;;;;5095326;28;20116;-72
2022/05/07 01:26:33;;;;;;;6.38;4.95;;;;;;;;;;5094603;28;20439;-72
2022/05/07 01:29:07;;;;;;;5.97;5.22;;;;;;;;;;5095065;28;20477;-71
2022/05/07 01:31:40;;;;;;;5.05;4.55;;;;;;;;;;5094683;28;20151;-70
2022/05/07 01:34:07;;;;;;;5.20;4.70;;;;;;;;;;5095706;28;20058;-70
2022/05/07 01:36:43;;;;;;;5.43;4.90;;;;;;;;;;5094822;28;20060;-71
2022/05/07 01:39:14;;;;;;;4.97;4.10;;;;;;;;;;5095224;28;20094;-70
2022/05/07 01:41:42;;;;;;;4.78;4.38;;;;;;;;;;5095148;28;20059;-71
2022/05/07 01:44:10;;;;;;;5.28;4.78;;;;;;;;;;5096060;28;20509;-70
2022/05/07 01:49:30;;;;;;;5.70;5.20;;;;;;;;;;5094659;28;20044;-69
2022/05/07 01:52:01;;;;;;;6.32;5.35;;;;;;;;;;5094649;28;20383;-68
2022/05/07 01:54:32;;;;;;;6.38;5.80;;;;;;;;;;5094173;28;20139;-68
2022/05/07 01:56:59;;;;;;;5.25;4.75;;;;;;;;;;5094722;28;20069;-68
2022/05/07 01:59:28;;;;;;;5.68;5.18;;;;;;;;;;5094302;28;20521;-68
2022/05/07 02:02:01;;;;;;;6.57;5.20;;;;;;;;;;5094594;28;20050;-68
2022/05/07 02:04:29;;;;;;;6.30;5.70;;;;;;;;;;5094011;28;20443;-70
2022/05/07 02:06:58;;;;;;;5.95;5.35;;;;;;;;;;5094214;28;20044;-70
2022/05/07 02:09:26;;;;;;;6.80;5.28;;;;;;;;;;5093699;28;20044;-70
2022/05/07 02:11:55;;;;;;;5.97;5.38;;;;;;;;;;5094058;28;20070;-69
2022/05/07 02:14:24;;;;;;;5.50;5.00;;;;;;;;;;5094340;28;20048;-69
2022/05/07 02:16:53;;;;;;;6.05;5.45;;;;;;;;;;5093798;28;20044;-70
2022/05/07 02:19:20;;;;;;;5.88;5.28;;;;;;;;;;5095332;28;20135;-70
2022/05/07 02:21:48;;;;;;;7.50;5.30;;;;;;;;;;5093047;28;20084;-71
2022/05/07 02:24:16;;;;;;;6.20;5.60;;;;;;;;;;5094023;28;20056;-70
2022/05/07 02:26:45;;;;;;;7.68;5.90;;;;;;;;;;5093363;28;20048;-71
2022/05/07 02:29:14;;;;;;;6.00;5.40;;;;;;;;;;5093995;28;20101;-71
2022/05/07 02:32:03;;;;;;;6.05;5.43;;;;;;;;;;5093424;28;20052;-70
2022/05/07 02:34:36;;;;;;;6.07;5.57;;;;;;;;;;5093760;28;20040;-70
2022/05/07 02:37:11;;;;;;;6.15;5.65;;;;;;;;;;5093793;28;20088;-69
2022/05/07 02:39:39;;;;;;;7.03;5.88;;;;;;;;;;5093630;28;20048;-68
2022/05/07 02:44:54;;;;;;;5.90;5.40;;;;;;;;;;5088383;28;20047;-68
2022/05/07 02:47:23;;;;;;;6.45;5.82;;;;;;;;;;5012243;28;20042;-70
2022/05/07 02:49:52;;;;;;;8.00;5.40;;;;;;;;;;5011669;28;20111;-71
2022/05/07 02:52:21;;;;;;;6.25;5.65;;;;;;;;;;5079843;28;20098;-70
2022/05/07 02:54:49;;;;;;;6.40;5.75;;;;;;;;;;5011414;28;20046;-71
2022/05/07 02:57:17;;;;;;;7.00;5.75;;;;;;;;;;5011677;28;20546;-70
2022/05/07 02:59:45;;;;;;;7.15;5.82;;;;;;;;;;5011069;28;20057;-70
2022/05/07 03:02:13;;;;;;;5.78;5.18;;;;;;;;;;5079244;28;20496;-70
2022/05/07 03:04:46;;;;;;;6.13;5.63;;;;;;;;;;5011558;28;20566;-69
2022/05/07 03:07:14;;;;;;;7.13;6.43;;;;;;;;;;5078921;28;20061;-69
2022/05/07 03:09:44;;;;;;;6.55;5.95;;;;;;;;;;5079170;28;20057;-69
2022/05/07 03:12:13;;;;;;;6.68;6.07;;;;;;;;;;5078599;28;20181;-69
2022/05/07 03:14:44;;;;;;;8.68;6.63;;;;;;;;;;5079216;28;20140;-69
2022/05/07 03:17:13;;;;;;;7.20;6.47;;;;;;;;;;5011097;28;20045;-69
2022/05/07 03:19:41;;;;;;;6.82;6.00;;;;;;;;;;5011503;28;20129;-68
2022/05/07 03:22:10;;;;;;;8.05;6.88;;;;;;;;;;5010166;28;20050;-69
2022/05/07 03:24:38;;;;;;;9.07;6.07;;;;;;;;;;5078891;28;20064;-69
2022/05/07 03:27:08;;;;;;;7.53;6.82;;;;;;;;;;5078955;28;20409;-69
2022/05/07 03:29:37;;;;;;;7.90;6.13;;;;;;;;;;5011191;28;20481;-71
2022/05/07 03:32:16;;;;;;;8.13;7.30;;;;;;;;;;5011741;28;20042;-72
2022/05/07 03:34:50;;;;;;;7.22;6.53;;;;;;;;;;5078524;28;20054;-71
2022/05/07 03:37:21;;;;;;;8.63;7.82;;;;;;;;;;5079190;28;20453;-72
2022/05/07 03:39:50;;;;;;;9.15;8.27;;;;;;;;;;5078691;28;20053;-71
2022/05/07 03:42:23;;;;;;;8.95;8.05;;;;;;;;;;5078517;28;20497;-71
2022/05/07 03:44:51;;;;;;;8.95;8.07;;;;;;;;;;5010264;28;20057;-71
2022/05/07 03:47:19;;;;;;;14.45;8.82;;;;;;;;;;5011341;28;20045;-70
2022/05/07 03:49:47;;;;;;;9.10;8.20;;;;;;;;;;5010908;28;20149;-70
2022/05/07 03:55:06;;;;;;;10.18;8.98;;;;;;;;;;5078969;28;20560;-70
2022/05/07 03:57:41;;;;;;;11.40;10.30;;;;;;;;;;5078303;28;20048;-70
2022/05/07 04:00:11;;;;;;;10.75;9.55;;;;;;;;;;5078804;28;20054;-70
2022/05/07 04:02:40;;;;;;;11.05;10.02;;;;;;;;;;5010832;28;20049;-70
2022/05/07 04:05:23;;;;;;;8.77;7.97;;;;;;;;;;5078658;28;20141;-70
2022/05/07 04:07:55;;;;;;;11.27;9.48;;;;;;;;;;5078082;28;20489;-70
2022/05/07 04:10:25;;;;;;;10.48;9.20;;;;;;;;;;5078718;28;20472;-69
2022/05/07 04:12:53;;;;;;;10.55;9.45;;;;;;;;;;5010289;28;20054;-71
2022/05/07 04:15:26;;;;;;;12.32;11.13;;;;;;;;;;5010585;28;20516;-71
2022/05/07 04:17:59;;;;;;;10.20;9.15;;;;;;;;;;5078378;28;20057;-71
2022/05/07 04:20:28;;;;;;;10.02;8.88;;;;;;;;;;5010926;28;20053;-70
2022/05/07 04:23:04;;;;;;;11.13;9.90;;;;;;;;;;5078283;28;20054;-70
2022/05/07 04:25:41;;;;;;;9.63;8.73;;;;;;;;;;5078133;28;20053;-71
2022/05/07 04:28:12;;;;;;;11.50;10.32;;;;;;;;;;5078369;28;20050;-71
2022/05/07 04:30:44;;;;;;;14.32;10.75;;;;;;;;;;5078143;28;20050;-71
2022/05/07 04:33:18;;;;;;;13.70;11.95;;;;;;;;;;5079884;28;20042;-71
2022/05/07 04:35:48;;;;;;;11.95;10.75;;;;;;;;;;5081488;28;20058;-71
2022/05/07 04:38:20;;;;;;;11.23;9.95;;;;;;;;;;5082258;28;20081;-70
2022/05/07 04:40:48;;;;;;;12.20;11.00;;;;;;;;;;5013826;28;20054;-69
2022/05/07 04:43:21;;;;;;;12.13;10.88;;;;;;;;;;5082044;28;20054;-69
2022/05/07 04:45:49;;;;;;;13.43;12.02;;;;;;;;;;5081824;28;20054;-70
2022/05/07 04:48:26;;;;;;;12.10;10.68;;;;;;;;;;5082012;28;20054;-69
2022/05/07 04:50:55;;;;;;;15.95;13.35;;;;;;;;;;5081620;28;20097;-70
2022/05/07 04:53:32;;;;;;;15.35;11.75;;;;;;;;;;5079713;28;20057;-68
2022/05/07 04:56:08;;;;;;;13.43;12.18;;;;;;;;;;5066464;28;20054;-68
2022/05/07 04:58:45;;;;;;;15.02;11.77;;;;;;;;;;5080626;28;20137;-71
2022/05/07 05:01:14;;;;;;;15.48;13.18;;;;;;;;;;5081146;28;20447;-71
2022/05/07 05:03:46;;;;;;;17.00;15.20;;;;;;;;;;5077502;28;20416;-71
2022/05/07 05:06:26;;;;;;;18.00;15.30;;;;;;;;;;5080133;28;20050;-70
2022/05/07 05:08:59;;;;;;;17.50;15.27;;;;;;;;;;5079620;28;20141;-70
2022/05/07 05:11:29;;;;;;;16.27;14.63;;;;;;;;;;5080099;28;20415;-70
2022/05/07 05:13:57;;;;;;;17.63;14.82;;;;;;;;;;5080321;28;20070;-72
2022/05/07 05:16:28;;;;;;;22.83;15.85;;;;;;;;;;5008055;28;20068;-72
2022/05/07 05:19:04;;;;;;;25.58;16.92;;;;;;;;;;5080810;28;20084;-68
2022/05/07 05:21:33;;;;;;;19.95;18.02;;;;;;;;;;5080719;28;20439;-68
2022/05/07 05:24:08;;;;;;;17.50;15.70;;;;;;;;;;5063155;28;20436;-68
2022/05/07 05:26:37;;;;;;;18.90;15.70;;;;;;;;;;5080265;28;20106;-68
2022/05/07 05:29:11;;;;;;;20.60;17.73;;;;;;;;;;5080189;28;20100;-68
2022/05/07 05:31:40;;;;;;;24.13;19.48;;;;;;;;;;5080123;28;20050;-68
2022/05/07 05:34:17;;;;;;;20.92;17.95;;;;;;;;;;5080541;28;20049;-68
2022/05/07 05:36:50;;;;;;;19.00;16.80;;;;;;;;;;5080221;28;20503;-68
2022/05/07 05:39:21;;;;;;;21.83;18.10;;;;;;;;;;5076419;28;20068;-68
2022/05/07 05:41:51;;;;;;;20.67;17.88;;;;;;;;;;5049869;28;20046;-69
2022/05/07 05:44:20;;;;;;;21.73;18.67;;;;;;;;;;5076508;28;20081;-70
2022/05/07 05:46:48;;;;;;;23.95;19.20;;;;;;;;;;5079409;28;20073;-70
2022/05/07 05:49:17;;;;;;;30.15;24.63;;;;;;;;;;5080125;28;20496;-70
2022/05/07 05:51:46;;;;;;;39.38;24.25;;;;;;;;;;5079803;28;20488;-70
2022/05/07 05:54:15;;;;;;;35.10;26.48;;;;;;;;;;5079315;28;20050;-69
2022/05/07 05:56:45;;;;;;;39.92;29.15;;;;;;;;;;5012117;28;20052;-69
2022/05/07 05:59:16;;;;;;;38.33;29.17;;;;;;;;;;5078735;28;20046;-69
2022/05/07 06:01:53;;;;;;;35.65;27.50;;;;;;;;;;5073139;28;20489;-70
2022/05/07 06:04:41;;;;;;;37.38;28.35;;;;;;;;;;5079662;28;20046;-69
2022/05/07 06:07:17;;;;;;;46.60;29.20;;;;;;;;;;5012258;28;20038;-70
2022/05/07 06:09:46;;;;;;;39.35;27.63;;;;;;;;;;5079564;28;20054;-71
2022/05/07 06:12:21;;;;;;;37.50;27.00;;;;;;;;;;5079944;28;20053;-66
2022/05/07 06:14:56;;;;;;;32.80;25.77;;;;;;;;;;5011678;28;20084;-70
2022/05/07 06:17:29;;;;;;;31.80;26.45;;;;;;;;;;5077757;28;20579;-69
2022/05/07 06:19:59;;;;;;;31.73;24.88;;;;;;;;;;5095642;28;20046;-68
2022/05/07 06:22:33;;;;;;;34.40;26.65;;;;;;;;;;5078803;28;20520;-68
2022/05/07 06:28:01;;;;;;;37.97;28.23;;;;;;;;;;5078752;28;20042;-76
2022/05/07 06:30:35;;;;;;;41.85;28.50;;;;;;;;;;5079136;28;20060;-71
2022/05/07 06:33:07;;;;;;;34.03;27.50;;;;;;;;;;5078748;28;20110;-68
2022/05/07 06:35:48;;;;;;;40.53;28.55;;;;;;;;;;5079433;28;20055;-69
2022/05/07 06:38:29;;;;;;;34.78;28.50;;;;;;;;;;5079275;28;20145;-68
2022/05/07 06:41:02;;;;;;;33.17;25.42;;;;;;;;;;5079272;28;20046;-68
2022/05/07 06:43:34;;;;;;;34.15;28.23;;;;;;;;;;5006031;28;20122;-68
2022/05/07 06:46:03;;;;;;;35.97;27.08;;;;;;;;;;5010393;28;20049;-68
2022/05/07 06:48:37;;;;;;;35.80;29.40;;;;;;;;;;5078368;28;20057;-68
2022/05/07 06:51:12;;;;;;;31.75;27.13;;;;;;;;;;5079149;28;20046;-76
2022/05/07 06:53:41;;;;;;;32.97;27.27;;;;;;;;;;5077938;28;20049;-70
2022/05/07 06:56:12;;;;;;;33.75;27.42;;;;;;;;;;5007446;28;20060;-64
2022/05/07 06:58:41;;;;;;;34.22;26.13;;;;;;;;;;5009121;28;20049;-62
2022/05/07 07:01:10;;;;;;;35.97;28.65;;;;;;;;;;5006297;28;20041;-62
2022/05/07 07:03:38;;;;;;;32.65;27.23;;;;;;;;;;5010731;28;20133;-62
2022/05/07 07:06:06;;;;;;;33.40;26.90;;;;;;;;;;5009657;28;20048;-62
2022/05/07 07:08:36;;;;;;;34.92;26.35;;;;;;;;;;5010194;28;20053;-62
2022/05/07 07:11:06;;;;;;;30.73;25.77;;;;;;;;;;5076518;28;20136;-62
2022/05/07 07:13:34;;;;;;;32.65;26.65;;;;;;;;;;5015617;28;20412;-62
2022/05/07 07:16:03;;;;;;;36.00;28.60;;;;;;;;;;5016199;28;20132;-63
2022/05/07 07:18:32;;;;;;;29.35;24.35;;;;;;;;;;5015822;28;20064;-63
2022/05/07 07:21:00;;;;;;;26.85;23.75;;;;;;;;;;5011466;28;20046;-66
2022/05/07 07:23:29;;;;;;;33.38;25.05;;;;;;;;;;5006455;28;20130;-65
2022/05/07 07:25:57;;;;;;;30.88;24.33;;;;;;;;;;5012026;28;20038;-66
2022/05/07 07:28:25;;;;;;;29.45;23.92;;;;;;;;;;5021914;28;20483;-65
2022/05/07 07:30:54;;;;;;;28.80;25.48;;;;;;;;;;5015194;28;20050;-65
2022/05/07 07:33:22;;;;;;;26.90;24.00;;;;;;;;;;5026851;28;20472;-66
2022/05/07 07:35:51;;;;;;;29.48;23.30;;;;;;;;;;5017388;28;20208;-66
2022/05/07 07:38:26;;;;;;;28.88;23.90;;;;;;;;;;5020000;28;20049;-65
2022/05/07 07:40:56;;;;;;;23.65;20.83;;;;;;;;;;5013155;28;20054;-65
2022/05/07 07:43:24;;;;;;;26.17;23.35;;;;;;;;;;5081211;28;20216;-66
2022/05/07 07:48:40;;;;;;;23.27;20.75;;;;;;;;;;5013477;28;20419;-66
2022/05/07 07:51:09;;;;;;;25.45;22.75;;;;;;;;;;5016842;28;20042;-65
2022/05/07 07:53:42;;;;;;;29.02;23.48;;;;;;;;;;5007720;28;20420;-66
2022/05/07 07:56:12;;;;;;;33.85;24.48;;;;;;;;;;5074753;28;20668;-65
2022/05/07 07:58:41;;;;;;;25.90;23.02;;;;;;;;;;5008420;28;20492;-66
2022/05/07 08:01:08;;;;;;;30.10;23.75;;;;;;;;;;5008107;28;20053;-66
2022/05/07 08:03:36;;;;;;;28.73;24.23;;;;;;;;;;5008121;28;20042;-66
2022/05/07 08:06:05;;;;;;;27.92;23.33;;;;;;;;;;5008359;28;20073;-66
2022/05/07 08:11:46;;;;;;;27.00;22.30;;;;;;;;;;5014321;28;20054;-66
2022/05/07 08:14:14;;;;;;;26.40;22.80;;;;;;;;;;5014208;28;20107;-66
2022/05/07 08:16:43;;;;;;;23.45;20.13;;;;;;;;;;5013796;28;20073;-66
2022/05/07 08:19:12;;;;;;;21.55;19.23;;;;;;;;;;5013892;28;20042;-66
2022/05/07 08:21:41;;;;;;;24.15;21.05;;;;;;;;;;5013969;28;20100;-65
2022/05/07 08:24:10;;;;;;;21.88;19.35;;;;;;;;;;5013647;28;20054;-65
2022/05/07 08:26:38;;;;;;;21.88;19.60;;;;;;;;;;5013860;28;20046;-66
2022/05/07 08:29:06;;;;;;;22.13;19.55;;;;;;;;;;5014259;28;20050;-65
2022/05/07 08:31:34;;;;;;;20.33;18.23;;;;;;;;;;5013186;28;20077;-65
2022/05/07 08:34:03;;;;;;;21.90;19.75;;;;;;;;;;5013979;28;20443;-65
2022/05/07 08:36:33;;;;;;;24.55;19.33;;;;;;;;;;5013393;28;20054;-65
2022/05/07 08:39:01;;;;;;;21.65;19.33;;;;;;;;;;5013809;28;20126;-65
2022/05/07 08:41:30;;;;;;;23.10;20.60;;;;;;;;;;5012978;28;20046;-65
2022/05/07 08:43:59;;;;;;;24.40;18.70;;;;;;;;;;5013767;28;20413;-65
2022/05/07 08:46:28;;;;;;;21.50;19.23;;;;;;;;;;5013469;28;20152;-65
2022/05/07 08:48:56;;;;;;;22.90;20.50;;;;;;;;;;5012959;28;20390;-65
2022/05/07 08:51:24;;;;;;;20.63;17.73;;;;;;;;;;5014036;28;20042;-65
2022/05/07 08:53:55;;;;;;;19.42;17.33;;;;;;;;;;5080488;28;20052;-66
2022/05/07 08:56:25;;;;;;;19.02;16.80;;;;;;;;;;5013750;28;20389;-66
2022/05/07 08:58:54;;;;;;;19.05;17.13;;;;;;;;;;5013235;28;20068;-66
2022/05/07 09:01:23;;;;;;;17.73;15.82;;;;;;;;;;5013250;28;20523;-66
2022/05/07 09:03:51;;;;;;;25.50;17.50;;;;;;;;;;5013155;28;20054;-66
2022/05/07 09:06:24;;;;;;;18.95;16.92;;;;;;;;;;5081576;28;20401;-65
2022/05/07 09:08:57;;;;;;;18.80;16.92;;;;;;;;;;5013312;28;20492;-66
2022/05/07 09:11:26;;;;;;;19.80;17.75;;;;;;;;;;5012907;28;20061;-65
2022/05/07 09:14:04;;;;;;;18.15;16.38;;;;;;;;;;5013101;28;20046;-65
2022/05/07 09:16:45;;;;;;;23.25;16.45;;;;;;;;;;5012924;28;20052;-65
2022/05/07 09:19:22;;;;;;;16.67;15.00;;;;;;;;;;5012435;28;20107;-65
2022/05/07 09:21:55;;;;;;;17.42;15.25;;;;;;;;;;5012983;28;20424;-65
2022/05/07 09:24:24;;;;;;;17.98;14.23;;;;;;;;;;5012939;28;20053;-65
2022/05/07 09:26:57;;;;;;;20.30;16.15;;;;;;;;;;5012883;28;20053;-65
2022/05/07 09:29:30;;;;;;;16.10;14.15;;;;;;;;;;5013115;28;20097;-64
2022/05/07 09:32:08;;;;;;;16.45;14.82;;;;;;;;;;5012566;28;20053;-65
2022/05/07 09:37:39;;;;;;;18.10;16.02;;;;;;;;;;5012323;28;20094;-65
2022/05/07 09:40:12;;;;;;;18.55;16.65;;;;;;;;;;5012854;28;20042;-65
2022/05/07 09:42:42;;;;;;;17.85;16.10;;;;;;;;;;5018584;28;20050;-65
2022/05/07 09:45:12;;;;;;;17.90;14.25;;;;;;;;;;5079928;28;20064;-66
2022/05/07 09:47:40;;;;;;;13.90;12.10;;;;;;;;;;5012491;28;20136;-65
2022/05/07 09:58:52;;;;;;;17.33;15.70;;;;;;;;;;5030287;28;20488;-66
2022/05/07 10:01:25;;;;;;;19.23;16.45;;;;;;;;;;5018510;28;20060;-66
2022/05/07 10:04:24;;;;;;;17.92;14.95;;;;;;;;;;5012262;28;20054;-63
2022/05/07 10:07:06;;;;;;;18.67;14.70;;;;;;;;;;5078464;28;20118;-66
2022/05/07 10:09:41;;;;;;;17.77;15.30;;;;;;;;;;5011504;28;20046;-65
2022/05/07 10:12:16;;;;;;;18.13;16.33;;;;;;;;;;5012036;28;20378;-78
2022/05/07 10:14:45;;;;;;;19.92;17.98;;;;;;;;;;5079259;28;20075;-73
2022/05/07 10:17:15;;;;;;;23.27;17.60;;;;;;;;;;5014136;28;20049;-75
2022/05/07 10:19:45;;;;;;;17.30;15.60;;;;;;;;;;5012256;28;20052;-71
2022/05/07 10:22:24;;;;;;;17.23;13.70;;;;;;;;;;5010858;28;20081;-72
2022/05/07 10:25:14;;;;;;;19.40;14.55;;;;;;;;;;5011741;28;20058;-72
2022/05/07 10:27:43;;;;;;;17.80;16.02;;;;;;;;;;5010360;28;20054;-75
2022/05/07 10:30:16;;;;;;;18.58;16.42;;;;;;;;;;5010682;28;20523;-73
2022/05/07 10:33:19;;;;;;;20.83;13.43;;;;;;;;;;5010709;28;20519;-72
2022/05/07 10:35:53;;;;;;;16.27;14.68;;;;;;;;;;5011977;28;20050;-73
2022/05/07 10:38:27;;;;;;;15.88;14.27;;;;;;;;;;5011541;28;20042;-72
2022/05/07 10:41:04;;;;;;;15.55;12.93;;;;;;;;;;5010521;28;20526;-73
2022/05/07 10:43:36;;;;;;;15.38;13.75;;;;;;;;;;5011713;28;20053;-73
2022/05/07 10:46:18;;;;;;;15.45;13.73;;;;;;;;;;5010074;28;20049;-68
2022/05/07 10:48:56;;;;;;;17.48;15.68;;;;;;;;;;5010002;28;20042;-72
2022/05/07 10:51:50;;;;;;;16.58;14.90;;;;;;;;;;5010564;28;20485;-72
2022/05/07 10:54:26;;;;;;;16.25;14.73;;;;;;;;;;5011562;28;20042;-71
2022/05/07 10:56:57;;;;;;;15.80;14.30;;;;;;;;;;5010629;28;20401;-71
2022/05/07 10:59:29;;;;;;;17.48;15.63;;;;;;;;;;5011561;28;20046;-71
2022/05/07 11:02:09;;;;;;;16.17;14.77;;;;;;;;;;5011081;28;20046;-71
2022/05/07 11:04:43;;;;;;;19.27;15.10;;;;;;;;;;5012441;28;20049;-72
2022/05/07 11:07:19;;;;;;;16.30;11.73;;;;;;;;;;5010731;28;20071;-71
2022/05/07 11:09:51;;;;;;;13.82;12.57;;;;;;;;;;5010719;28;20515;-71
2022/05/07 11:12:22;;;;;;;16.40;11.13;;;;;;;;;;5073986;28;20438;-71
2022/05/07 11:14:52;;;;;;;15.35;11.52;;;;;;;;;;5010716;28;21504;-70
2022/05/07 11:17:34;;;;;;;19.08;11.60;;;;;;;;;;5010364;28;20053;-70
2022/05/07 11:20:10;;;;;;;16.50;12.73;;;;;;;;;;5010820;28;20053;-70
2022/05/07 11:22:40;;;;;;;16.42;13.77;;;;;;;;;;5011513;28;20054;-70
2022/05/07 11:25:10;;;;;;;14.85;13.25;;;;;;;;;;5010618;28;20083;-70
2022/05/07 11:27:39;;;;;;;15.73;13.60;;;;;;;;;;5009791;28;20046;-71
2022/05/07 11:30:12;;;;;;;13.48;12.18;;;;;;;;;;5008033;28;20425;-68
2022/05/07 11:32:42;;;;;;;16.33;12.75;;;;;;;;;;5009918;28;20053;-68
2022/05/07 11:35:11;;;;;;;20.92;13.77;;;;;;;;;;5009277;28;20489;-70
2022/05/07 11:37:46;;;;;;;13.50;11.77;;;;;;;;;;5007466;28;20034;-70
2022/05/07 11:40:15;;;;;;;11.48;9.90;;;;;;;;;;5007081;28;20046;-68
2022/05/07 11:42:49;;;;;;;12.32;10.88;;;;;;;;;;5007043;28;20053;-69
2022/05/07 11:45:29;;;;;;;11.80;10.52;;;;;;;;;;5007836;28;20125;-68
2022/05/07 11:48:05;;;;;;;12.90;11.70;;;;;;;;;;5009678;28;20435;-68
2022/05/07 11:50:50;;;;;;;13.77;12.48;;;;;;;;;;5013746;28;20042;-68
2022/05/07 11:53:23;;;;;;;11.70;10.38;;;;;;;;;;5009909;28;20539;-68
2022/05/07 11:55:50;;;;;;;14.10;12.70;;;;;;;;;;5009875;28;20046;-68
2022/05/07 11:58:22;;;;;;;14.25;11.80;;;;;;;;;;5009872;28;20061;-69
2022/05/07 12:00:57;;;;;;;16.70;12.00;;;;;;;;;;5010763;28;20103;-68
2022/05/07 12:03:44;;;;;;;12.48;11.40;;;;;;;;;;5013314;28;20060;-69
2022/05/07 12:06:34;;;;;;;13.65;12.25;;;;;;;;;;5007908;28;20129;-68
2022/05/07 12:09:13;;;;;;;17.50;11.90;;;;;;;;;;5005724;28;20061;-69
2022/05/07 12:11:45;;;;;;;12.40;9.30;;;;;;;;;;5018635;28;20050;-69
2022/05/07 12:14:14;;;;;;;11.82;9.07;;;;;;;;;;5078014;28;20425;-69
2022/05/07 12:19:33;;;;;;;10.07;9.02;;;;;;;;;;5010128;28;20512;-70
2022/05/07 12:30:40;;;;;;;11.35;8.48;;;;;;;;;;5009482;28;20049;-68
2022/05/07 12:33:09;;;;;;;10.30;9.27;;;;;;;;;;5007505;28;20042;-70
2022/05/07 12:35:38;;;;;;;11.73;10.63;;;;;;;;;;5008049;28;20069;-70
2022/05/07 12:38:06;;;;;;;11.60;9.63;;;;;;;;;;5007853;28;20069;-70
2022/05/07 12:40:35;;;;;;;10.93;9.70;;;;;;;;;;5007862;28;20072;-69
2022/05/07 12:43:03;;;;;;;12.77;10.38;;;;;;;;;;5007767;28;20071;-69
2022/05/07 12:45:32;;;;;;;12.90;10.55;;;;;;;;;;5007510;28;20049;-76
2022/05/07 12:48:00;;;;;;;19.45;9.10;;;;;;;;;;5008132;28;20409;-76
2022/05/07 12:50:28;;;;;;;9.32;8.52;;;;;;;;;;5009089;28;20092;-76
2022/05/07 12:52:57;;;;;;;9.63;8.68;;;;;;;;;;5008819;28;20041;-76
2022/05/07 12:55:25;;;;;;;13.10;10.50;;;;;;;;;;5011514;28;20069;-74
2022/05/07 12:57:54;;;;;;;13.10;9.75;;;;;;;;;;5012298;28;20416;-76
2022/05/07 13:00:25;;;;;;;10.88;9.85;;;;;;;;;;5012392;28;20454;-75
2022/05/07 13:02:56;;;;;;;10.40;9.30;;;;;;;;;;5012084;28;20449;-76
2022/05/07 13:05:26;;;;;;;10.50;9.40;;;;;;;;;;5011767;28;20049;-75
2022/05/07 13:08:17;;;;;;;11.55;10.45;;;;;;;;;;5012421;28;20049;-76
2022/05/07 13:10:44;;;;;;;11.27;10.20;;;;;;;;;;5010463;28;20053;-76
2022/05/07 13:13:13;;;;;;;10.57;9.60;;;;;;;;;;5010983;28;20498;-77
2022/05/07 13:15:42;;;;;;;11.45;10.35;;;;;;;;;;5010140;28;20735;-76
2022/05/07 13:18:11;;;;;;;11.85;9.65;;;;;;;;;;5009975;28;20660;-77
2022/05/07 13:20:39;;;;;;;11.00;9.90;;;;;;;;;;5010517;28;20053;-77
2022/05/07 13:23:08;;;;;;;12.80;10.85;;;;;;;;;;5010098;28;20042;-77
2022/05/07 13:25:37;;;;;;;12.40;10.52;;;;;;;;;;5010414;28;20038;-76
2022/05/07 13:28:06;;;;;;;13.40;10.35;;;;;;;;;;5010004;28;20046;-77
2022/05/07 13:30:35;;;;;;;14.32;10.63;;;;;;;;;;5012742;28;20057;-76
2022/05/07 13:33:05;;;;;;;13.15;10.65;;;;;;;;;;5012631;28;20061;-77
2022/05/07 13:35:33;;;;;;;13.23;10.57;;;;;;;;;;5012024;28;20056;-76
2022/05/07 13:38:00;;;;;;;14.48;10.35;;;;;;;;;;5012681;28;20053;-76
2022/05/07 13:40:28;;;;;;;19.48;10.98;;;;;;;;;;5011647;28;20126;-76
2022/05/07 13:43:01;;;;;;;13.05;10.63;;;;;;;;;;5012517;28;20170;-76
2022/05/07 13:45:30;;;;;;;14.57;11.20;;;;;;;;;;5011791;28;20050;-76
2022/05/07 13:47:58;;;;;;;11.38;10.27;;;;;;;;;;5011927;28;20054;-76
2022/05/07 13:50:27;;;;;;;12.13;10.82;;;;;;;;;;5012178;28;20042;-77
2022/05/07 13:52:56;;;;;;;13.10;11.68;;;;;;;;;;5012710;28;20473;-76
2022/05/07 13:55:25;;;;;;;12.05;10.80;;;;;;;;;;5012223;28;20050;-76
2022/05/07 13:57:54;;;;;;;13.10;10.90;;;;;;;;;;5011454;28;20050;-75
2022/05/07 14:00:23;;;;;;;13.30;11.93;;;;;;;;;;5079309;28;20541;-75
2022/05/07 14:02:52;;;;;;;14.43;13.13;;;;;;;;;;5011449;28;20513;-75
2022/05/07 14:05:20;;;;;;;17.95;15.45;;;;;;;;;;5011574;28;20076;-75
2022/05/07 14:07:49;;;;;;;16.50;14.68;;;;;;;;;;5011507;28;20046;-76
2022/05/07 14:10:18;;;;;;;18.70;16.83;;;;;;;;;;5011489;28;20488;-75
2022/05/07 14:12:48;;;;;;;16.48;14.57;;;;;;;;;;5009164;28;20042;-74
2022/05/07 14:15:16;;;;;;;21.83;19.52;;;;;;;;;;5011711;28;20052;-75
2022/05/07 14:17:44;;;;;;;33.92;28.98;;;;;;;;;;5012408;28;20061;-74
2022/05/07 14:20:13;;;;;;;24.83;22.42;;;;;;;;;;5011550;28;20053;-75
2022/05/07 14:22:42;;;;;;;22.33;19.88;;;;;;;;;;5011800;28;20054;-75
2022/05/07 14:25:11;;;;;;;25.30;20.80;;;;;;;;;;5011376;28;20057;-75
2022/05/07 14:27:40;;;;;;;19.20;17.10;;;;;;;;;;5011577;28;20054;-74
2022/05/07 14:30:10;;;;;;;20.55;18.42;;;;;;;;;;5011194;28;20075;-76
2022/05/07 14:32:39;;;;;;;25.48;21.42;;;;;;;;;;5011130;28;20497;-75
2022/05/07 14:35:09;;;;;;;29.02;25.15;;;;;;;;;;5011260;28;20038;-76
2022/05/07 14:37:38;;;;;;;26.85;24.15;;;;;;;;;;5011387;28;20511;-75
2022/05/07 14:42:53;;;;;;;30.75;27.48;;;;;;;;;;5011531;28;20050;-75
2022/05/07 14:45:23;;;;;;;23.90;21.30;;;;;;;;;;5010805;28;20042;-74
2022/05/07 14:47:51;;;;;;;23.30;20.85;;;;;;;;;;5011253;28;20511;-77
2022/05/07 14:50:23;;;;;;;26.70;24.00;;;;;;;;;;5011463;28;20041;-76
2022/05/07 14:52:51;;;;;;;28.75;25.73;;;;;;;;;;5010828;28;20049;-76
2022/05/07 14:55:20;;;;;;;33.45;27.95;;;;;;;;;;5010615;28;20102;-76
2022/05/07 14:57:48;;;;;;;32.17;28.55;;;;;;;;;;5010550;28;20069;-72
2022/05/07 15:00:17;;;;;;;30.08;27.00;;;;;;;;;;5010659;28;20046;-74
2022/05/07 15:02:48;;;;;;;27.70;24.75;;;;;;;;;;5011199;28;20129;-74
2022/05/07 15:05:16;;;;;;;28.05;25.15;;;;;;;;;;5010586;28;20080;-74
2022/05/07 15:07:44;;;;;;;33.28;29.52;;;;;;;;;;5010917;28;20045;-75
2022/05/07 15:13:08;;;;;;;33.13;29.55;;;;;;;;;;5009439;28;20038;-76
2022/05/07 15:15:41;;;;;;;26.02;22.90;;;;;;;;;;5010740;28;20042;-72
2022/05/07 15:18:12;;;;;;;22.02;19.70;;;;;;;;;;5010198;28;20125;-73
2022/05/07 15:20:40;;;;;;;19.80;17.75;;;;;;;;;;5010644;28;20046;-73
2022/05/07 15:23:09;;;;;;;19.48;17.42;;;;;;;;;;5077013;28;20133;-72
2022/05/07 15:25:37;;;;;;;14.05;12.52;;;;;;;;;;5010303;28;20053;-73
2022/05/07 15:28:07;;;;;;;22.52;17.80;;;;;;;;;;5010549;28;20064;-71
2022/05/07 15:30:36;;;;;;;17.25;14.00;;;;;;;;;;5011659;28;20046;-70
2022/05/07 15:38:42;;;;;;;15.27;11.23;;;;;;;;;;5067542;28;20069;-72
2022/05/07 15:41:12;;;;;;;10.68;9.38;;;;;;;;;;5011983;28;20050;-71